Time;durP1;ratioP1;P1;durP2;ratioP2;P2;SDS_P1;SDS_P2;PMS_P1;PMS_P2;Temp;Humidity;BMP_temperature;BMP_pressure;BME280_temperature;BME280_humidity;BME280_pressure;Samples;Min_cycle;Max_cycle;Signal;HPM_P1;HPM_P2
2024/01/24 00:01:33;;;;;;;5.70;2.63;;;12.80;99.90;;;;;;5055885;28;20845;-58
2024/01/24 00:04:00;;;;;;;7.80;2.90;;;12.90;99.90;;;;;;5056097;28;20452;-58
2024/01/24 00:06:27;;;;;;;7.67;3.10;;;12.90;99.90;;;;;;5056101;28;20442;-58
2024/01/24 00:08:54;;;;;;;6.60;3.00;;;12.90;99.90;;;;;;5055749;28;20453;-58
2024/01/24 00:11:21;;;;;;;10.03;2.63;;;13.00;99.90;;;;;;5055818;28;20481;-58
2024/01/24 00:13:49;;;;;;;3.60;2.50;;;12.90;99.90;;;;;;5055964;28;20859;-58
2024/01/24 00:16:17;;;;;;;10.43;3.47;;;12.90;99.90;;;;;;5056039;28;20456;-58
2024/01/24 00:18:44;;;;;;;4.37;2.70;;;13.00;99.90;;;;;;5056009;28;20468;-58
2024/01/24 00:21:11;;;;;;;11.03;2.60;;;13.00;99.90;;;;;;5055681;28;20453;-58
2024/01/24 00:23:37;;;;;;;4.37;2.83;;;13.00;99.90;;;;;;5055857;28;20442;-58
2024/01/24 00:26:04;;;;;;;11.43;3.80;;;13.00;99.90;;;;;;5055868;28;20828;-58
2024/01/24 00:28:31;;;;;;;8.27;3.17;;;13.00;99.90;;;;;;5055667;28;20448;-58
2024/01/24 00:30:59;;;;;;;6.27;2.63;;;13.00;99.90;;;;;;5055269;28;20787;-58
2024/01/24 00:33:29;;;;;;;4.57;2.73;;;13.10;99.90;;;;;;5055394;28;20469;-58
2024/01/24 00:35:56;;;;;;;5.53;2.70;;;13.10;99.90;;;;;;5055250;28;20900;-58
2024/01/24 00:38:22;;;;;;;5.20;2.60;;;13.10;99.90;;;;;;5055409;28;20450;-58
2024/01/24 00:40:49;;;;;;;5.13;2.80;;;13.10;99.90;;;;;;5055275;28;20449;-58
2024/01/24 00:43:16;;;;;;;5.20;2.40;;;13.20;99.90;;;;;;5055360;28;20828;-58
2024/01/24 00:45:42;;;;;;;6.53;2.83;;;13.20;99.90;;;;;;5055728;28;20446;-58
2024/01/24 00:48:09;;;;;;;6.80;2.90;;;13.20;99.90;;;;;;5055360;28;20802;-58
2024/01/24 00:50:37;;;;;;;7.10;2.77;;;13.30;99.90;;;;;;5055242;28;20468;-58
2024/01/24 00:53:06;;;;;;;4.90;2.50;;;13.30;99.90;;;;;;5054707;28;20494;-58
2024/01/24 00:55:33;;;;;;;6.57;2.80;;;13.30;99.90;;;;;;5054511;28;20947;-58
2024/01/24 00:57:59;;;;;;;13.67;2.83;;;13.30;99.90;;;;;;5054622;28;20450;-58
2024/01/24 01:00:26;;;;;;;8.40;2.50;;;13.40;99.90;;;;;;5054811;28;20449;-56
2024/01/24 01:02:53;;;;;;;7.70;2.10;;;13.40;99.90;;;;;;5054982;28;20462;-57
2024/01/24 01:05:20;;;;;;;7.93;2.47;;;13.40;99.90;;;;;;5054887;28;20446;-57
2024/01/24 01:07:48;;;;;;;6.00;1.83;;;13.50;99.90;;;;;;5054883;28;20449;-57
2024/01/24 01:10:15;;;;;;;2.47;2.17;;;13.50;99.90;;;;;;5054826;28;20441;-57
2024/01/24 01:12:42;;;;;;;4.20;2.33;;;13.50;99.90;;;;;;5054669;28;20485;-57
2024/01/24 01:15:09;;;;;;;4.93;2.00;;;13.50;99.90;;;;;;5054787;28;20449;-58
2024/01/24 01:17:36;;;;;;;5.60;2.73;;;13.60;99.90;;;;;;5054774;28;20798;-57
2024/01/24 01:20:03;;;;;;;4.13;1.93;;;13.60;99.90;;;;;;5054664;28;20445;-57
2024/01/24 01:22:30;;;;;;;2.83;1.90;;;13.60;99.90;;;;;;5054298;28;20986;-57
2024/01/24 01:24:58;;;;;;;3.43;1.80;;;13.70;99.90;;;;;;5054761;28;20809;-57
2024/01/24 01:27:24;;;;;;;6.00;2.60;;;13.70;99.90;;;;;;5054838;28;20457;-57
2024/01/24 01:29:51;;;;;;;2.80;1.60;;;13.70;99.90;;;;;;5054807;28;20445;-57
2024/01/24 01:32:18;;;;;;;3.10;2.00;;;13.80;99.90;;;;;;5054708;28;20492;-57
2024/01/24 01:34:44;;;;;;;3.57;1.57;;;13.80;99.90;;;;;;5054674;28;20817;-57
2024/01/24 01:37:12;;;;;;;3.10;1.43;;;13.80;99.90;;;;;;5054697;28;20446;-57
2024/01/24 01:39:39;;;;;;;2.67;1.40;;;13.80;99.90;;;;;;5055146;28;20445;-57
2024/01/24 01:42:07;;;;;;;3.30;1.33;;;13.90;99.90;;;;;;5055402;28;20493;-57
2024/01/24 01:44:42;;;;;;;2.03;1.30;;;13.80;99.90;;;;;;5055188;28;20453;-57
2024/01/24 01:47:10;;;;;;;1.63;1.37;;;13.90;99.90;;;;;;5055097;28;20465;-57
2024/01/24 01:49:38;;;;;;;2.63;1.63;;;14.00;99.90;;;;;;5055186;28;20469;-57
2024/01/24 01:52:06;;;;;;;3.63;1.63;;;14.00;99.90;;;;;;5053891;28;20583;-57
2024/01/24 01:54:33;;;;;;;4.07;1.30;;;13.90;99.90;;;;;;5053843;28;20453;-57
2024/01/24 01:57:01;;;;;;;3.13;1.13;;;14.00;99.90;;;;;;5054009;28;20453;-57
2024/01/24 01:59:29;;;;;;;3.63;1.60;;;14.00;99.90;;;;;;5053899;28;20460;-57
2024/01/24 02:01:57;;;;;;;2.63;1.47;;;14.00;99.90;;;;;;5053747;28;20462;-57
2024/01/24 02:04:25;;;;;;;4.30;1.50;;;14.00;99.90;;;;;;5053766;28;20445;-57
2024/01/24 02:06:52;;;;;;;1.50;1.40;;;14.00;99.90;;;;;;5053544;28;20449;-57
2024/01/24 02:09:18;;;;;;;3.60;1.23;;;14.10;99.90;;;;;;5053681;28;20449;-57
2024/01/24 02:11:45;;;;;;;2.30;1.60;;;14.10;99.90;;;;;;5053566;28;20579;-57
2024/01/24 02:14:12;;;;;;;4.43;1.13;;;14.10;99.90;;;;;;5053604;28;20446;-57
2024/01/24 02:16:40;;;;;;;7.40;1.50;;;14.10;99.90;;;;;;5053523;28;20819;-57
2024/01/24 02:19:07;;;;;;;1.70;1.07;;;14.10;99.90;;;;;;5053464;28;20448;-57
2024/01/24 02:21:34;;;;;;;2.83;1.20;;;14.10;99.90;;;;;;5053425;28;20461;-57
2024/01/24 02:24:01;;;;;;;2.03;1.10;;;14.10;99.90;;;;;;5053637;28;20442;-57
2024/01/24 02:26:30;;;;;;;3.50;1.30;;;14.20;99.90;;;;;;5053506;28;20832;-57
2024/01/24 02:28:56;;;;;;;2.97;1.27;;;14.20;99.90;;;;;;5053390;28;20452;-57
2024/01/24 02:31:23;;;;;;;1.90;1.30;;;14.20;99.90;;;;;;5052926;28;21167;-58
2024/01/24 02:33:50;;;;;;;0.90;0.80;;;14.20;99.90;;;;;;5053344;28;20886;-58
2024/01/24 02:36:16;;;;;;;2.90;0.97;;;14.20;99.90;;;;;;5053501;28;20452;-57
2024/01/24 02:38:43;;;;;;;2.83;1.23;;;14.20;99.90;;;;;;5053483;28;20448;-58
2024/01/24 02:41:10;;;;;;;4.07;1.30;;;14.20;99.90;;;;;;5053654;28;20448;-57
2024/01/24 02:43:38;;;;;;;1.30;1.20;;;14.20;99.90;;;;;;5053517;28;20541;-57
2024/01/24 02:46:05;;;;;;;2.33;1.00;;;14.20;99.90;;;;;;5053355;28;20859;-57
2024/01/24 02:48:31;;;;;;;3.27;1.17;;;14.20;99.90;;;;;;5053259;28;20448;-57
2024/01/24 02:50:58;;;;;;;2.90;1.00;;;14.10;99.90;;;;;;5053304;28;20453;-57
2024/01/24 02:53:25;;;;;;;2.50;0.80;;;14.10;99.90;;;;;;5052794;28;20496;-57
2024/01/24 02:55:51;;;;;;;1.70;1.00;;;14.10;99.90;;;;;;5053226;28;20442;-57
2024/01/24 02:58:18;;;;;;;3.23;0.97;;;14.10;99.90;;;;;;5054138;28;20449;-57
2024/01/24 03:00:46;;;;;;;1.93;0.83;;;14.10;99.90;;;;;;5055402;28;20812;-57
2024/01/24 03:03:13;;;;;;;1.27;0.87;;;14.00;99.90;;;;;;5057412;28;20832;-57
2024/01/24 03:05:39;;;;;;;0.80;0.80;;;14.00;99.90;;;;;;5057483;28;20810;-57
2024/01/24 03:08:07;;;;;;;0.90;0.70;;;13.90;99.90;;;;;;5057456;28;20450;-57
2024/01/24 03:10:34;;;;;;;1.10;0.70;;;13.90;99.90;;;;;;5057084;28;20452;-57
2024/01/24 03:13:00;;;;;;;2.10;0.80;;;13.90;99.90;;;;;;5057058;28;20489;-57
2024/01/24 03:15:27;;;;;;;2.10;0.90;;;13.90;99.90;;;;;;5057013;28;20449;-57
2024/01/24 03:17:55;;;;;;;3.07;0.97;;;13.90;99.90;;;;;;5057081;28;20442;-57
2024/01/24 03:20:22;;;;;;;0.80;0.60;;;13.80;99.90;;;;;;5056745;28;20818;-57
2024/01/24 03:22:49;;;;;;;0.87;0.80;;;13.90;99.90;;;;;;5057016;28;20818;-57
2024/01/24 03:25:18;;;;;;;2.40;0.87;;;13.90;99.90;;;;;;5056894;28;20452;-57
2024/01/24 03:27:45;;;;;;;0.90;0.60;;;13.80;99.90;;;;;;5057176;28;20456;-57
2024/01/24 03:30:13;;;;;;;0.90;0.60;;;13.80;99.90;;;;;;5056929;28;20441;-57
2024/01/24 03:32:39;;;;;;;0.97;0.80;;;13.80;99.90;;;;;;5056468;28;20485;-57
2024/01/24 03:35:09;;;;;;;2.50;0.60;;;13.80;99.90;;;;;;5056652;28;20468;-57
2024/01/24 03:37:36;;;;;;;2.70;0.70;;;13.80;99.90;;;;;;5057048;28;20442;-57
2024/01/24 03:40:04;;;;;;;1.23;0.87;;;13.80;99.90;;;;;;5057155;28;20445;-57
2024/01/24 03:42:32;;;;;;;0.70;0.50;;;13.70;99.90;;;;;;5057244;28;20461;-57
2024/01/24 03:44:59;;;;;;;0.83;0.80;;;13.70;99.90;;;;;;5056749;28;20484;-57
2024/01/24 03:47:26;;;;;;;0.70;0.70;;;13.60;99.90;;;;;;5057104;28;20456;-58
2024/01/24 03:49:53;;;;;;;1.43;0.73;;;13.50;99.90;;;;;;5056801;28;20468;-58
2024/01/24 03:52:21;;;;;;;1.10;1.00;;;13.50;99.90;;;;;;5055751;28;20481;-59
2024/01/24 03:54:48;;;;;;;1.27;0.60;;;13.40;99.90;;;;;;5055282;28;20469;-59
2024/01/24 03:57:14;;;;;;;0.70;0.70;;;13.40;99.90;;;;;;5055517;28;20445;-59
2024/01/24 03:59:41;;;;;;;1.30;0.70;;;13.30;99.90;;;;;;5055229;28;20457;-58
2024/01/24 04:02:08;;;;;;;2.67;0.70;;;13.30;99.90;;;;;;5054909;28;20469;-58
2024/01/24 04:04:34;;;;;;;1.10;0.80;;;13.30;99.90;;;;;;5055249;28;20516;-58
2024/01/24 04:07:01;;;;;;;1.07;0.60;;;13.30;99.90;;;;;;5055397;28;20449;-58
2024/01/24 04:09:29;;;;;;;1.83;0.80;;;13.30;99.90;;;;;;5055305;28;20445;-58
2024/01/24 04:11:56;;;;;;;1.30;0.57;;;13.30;99.90;;;;;;5054974;28;20829;-58
2024/01/24 04:14:23;;;;;;;0.90;0.50;;;13.40;99.90;;;;;;5054831;28;20482;-58
2024/01/24 04:16:49;;;;;;;1.63;0.57;;;13.40;99.90;;;;;;5054742;28;20865;-58
2024/01/24 04:19:16;;;;;;;0.80;0.60;;;13.40;99.90;;;;;;5054709;28;20816;-58
2024/01/24 04:21:43;;;;;;;0.60;0.40;;;13.40;99.90;;;;;;5054763;28;20466;-58
2024/01/24 04:24:10;;;;;;;0.43;0.40;;;13.40;99.90;;;;;;5054893;28;20469;-57
2024/01/24 04:26:38;;;;;;;0.60;0.40;;;13.50;99.90;;;;;;5054426;28;20457;-57
2024/01/24 04:29:05;;;;;;;0.87;0.83;;;13.50;99.90;;;;;;5055037;28;20472;-57
2024/01/24 04:31:31;;;;;;;0.80;0.70;;;13.50;99.90;;;;;;5054522;28;20470;-57
2024/01/24 04:33:58;;;;;;;0.80;0.80;;;13.60;99.90;;;;;;5054604;28;20477;-57
2024/01/24 04:36:25;;;;;;;0.47;0.47;;;13.60;99.90;;;;;;5054398;28;20823;-57
2024/01/24 04:38:51;;;;;;;0.53;0.53;;;13.60;99.90;;;;;;5054633;28;20456;-57
2024/01/24 04:41:18;;;;;;;1.03;0.50;;;13.60;99.90;;;;;;5054136;28;20970;-57
2024/01/24 04:43:46;;;;;;;0.60;0.40;;;13.60;99.90;;;;;;5054454;28;20442;-57
2024/01/24 04:46:14;;;;;;;1.43;1.33;;;13.60;99.90;;;;;;5054540;28;20441;-57
2024/01/24 04:48:41;;;;;;;0.70;0.50;;;13.60;99.90;;;;;;5054332;28;20474;-57
2024/01/24 04:51:08;;;;;;;0.67;0.47;;;13.60;99.90;;;;;;5054161;28;20446;-57
2024/01/24 04:53:36;;;;;;;0.50;0.30;;;13.60;99.90;;;;;;4975052;28;2292914;-57
2024/01/24 04:56:03;;;;;;;1.57;0.47;;;13.60;99.90;;;;;;5055423;28;20207;-57
2024/01/24 04:58:30;;;;;;;1.50;0.60;;;13.60;99.90;;;;;;5055304;28;20788;-57
2024/01/24 05:00:58;;;;;;;0.40;0.30;;;13.60;99.90;;;;;;5055309;28;20473;-57
2024/01/24 05:03:24;;;;;;;0.60;0.50;;;13.70;99.90;;;;;;5055068;28;20458;-57
2024/01/24 05:05:51;;;;;;;0.30;0.30;;;13.70;99.90;;;;;;5055196;28;20450;-57
2024/01/24 05:08:18;;;;;;;1.07;0.60;;;13.70;99.90;;;;;;5055234;28;20441;-57
2024/01/24 05:10:45;;;;;;;0.93;0.53;;;13.70;99.90;;;;;;5055002;28;20817;-57
2024/01/24 05:13:12;;;;;;;0.57;0.50;;;13.60;99.90;;;;;;5054858;28;20517;-57
2024/01/24 05:15:39;;;;;;;2.73;0.70;;;13.60;99.90;;;;;;5054672;28;20968;-57
2024/01/24 05:18:07;;;;;;;0.50;0.30;;;13.60;99.90;;;;;;5054903;28;20948;-57
2024/01/24 05:20:34;;;;;;;5.13;0.90;;;13.60;99.90;;;;;;5054502;28;20993;-57
2024/01/24 05:23:03;;;;;;;1.83;0.90;;;13.60;99.90;;;;;;5053979;28;20469;-57
2024/01/24 05:25:30;;;;;;;7.03;1.80;;;13.60;99.90;;;;;;5054851;28;20461;-57
2024/01/24 05:27:57;;;;;;;1.50;1.07;;;13.60;99.90;;;;;;5054792;28;20974;-57
2024/01/24 05:30:23;;;;;;;2.10;0.73;;;13.60;99.90;;;;;;5054747;28;20452;-57
2024/01/24 05:32:50;;;;;;;5.00;0.80;;;13.60;99.90;;;;;;5054244;28;20462;-57
2024/01/24 05:35:20;;;;;;;6.83;0.87;;;13.60;99.90;;;;;;5054546;28;20441;-57
2024/01/24 05:37:47;;;;;;;3.90;1.00;;;13.50;99.90;;;;;;5054445;28;20449;-57
2024/01/24 05:40:14;;;;;;;6.23;1.20;;;13.50;99.90;;;;;;5053992;28;20959;-57
2024/01/24 05:42:41;;;;;;;1.50;0.53;;;13.50;99.90;;;;;;5054279;28;20466;-58
2024/01/24 05:45:08;;;;;;;3.10;1.03;;;13.40;99.90;;;;;;5054574;28;20448;-58
2024/01/24 05:47:35;;;;;;;1.37;0.60;;;13.40;99.90;;;;;;5054618;28;20477;-58
2024/01/24 05:50:02;;;;;;;4.07;0.70;;;13.30;99.90;;;;;;5054326;28;20935;-58
2024/01/24 05:52:30;;;;;;;2.17;0.93;;;13.20;99.90;;;;;;5054527;28;20473;-58
2024/01/24 05:54:57;;;;;;;5.13;1.13;;;13.10;99.90;;;;;;5054333;28;20485;-58
2024/01/24 05:57:23;;;;;;;7.20;2.00;;;13.10;99.90;;;;;;5054504;28;20452;-58
2024/01/24 05:59:50;;;;;;;16.47;1.70;;;13.10;99.90;;;;;;5054519;28;20465;-57
2024/01/24 06:02:17;;;;;;;12.30;2.47;;;13.10;99.90;;;;;;5054266;28;20461;-57
2024/01/24 06:04:43;;;;;;;13.73;1.97;;;13.10;99.90;;;;;;5054586;28;20488;-57
2024/01/24 06:07:10;;;;;;;6.33;1.40;;;13.10;99.90;;;;;;5054297;28;20453;-57
2024/01/24 06:09:38;;;;;;;10.83;1.87;;;13.10;99.90;;;;;;5053983;28;20449;-57
2024/01/24 06:12:05;;;;;;;9.27;1.87;;;13.10;99.90;;;;;;5053862;28;20472;-57
2024/01/24 06:14:32;;;;;;;12.40;3.10;;;13.10;99.90;;;;;;5054223;28;20483;-57
2024/01/24 06:16:59;;;;;;;9.70;2.47;;;13.10;99.90;;;;;;5054774;28;20445;-57
2024/01/24 06:19:25;;;;;;;9.40;3.23;;;13.10;99.90;;;;;;5054325;28;20442;-57
2024/01/24 06:21:52;;;;;;;11.77;3.00;;;13.10;99.90;;;;;;5054437;28;20627;-57
2024/01/24 06:24:19;;;;;;;17.20;3.73;;;13.10;99.90;;;;;;5054531;28;20928;-57
2024/01/24 06:26:47;;;;;;;13.50;3.40;;;13.10;99.90;;;;;;5055057;28;20966;-57
2024/01/24 06:29:13;;;;;;;15.13;4.10;;;13.00;99.90;;;;;;5054608;28;20441;-57
2024/01/24 06:31:40;;;;;;;12.73;2.73;;;13.00;99.90;;;;;;5054648;28;20472;-57
2024/01/24 06:34:07;;;;;;;6.63;2.50;;;13.00;99.90;;;;;;5054987;28;20489;-57
2024/01/24 06:36:35;;;;;;;14.20;3.70;;;13.00;99.90;;;;;;5055844;28;20446;-57
2024/01/24 06:39:02;;;;;;;21.23;4.37;;;13.00;99.90;;;;;;5055361;28;20445;-58
2024/01/24 06:41:29;;;;;;;18.70;3.53;;;13.00;99.90;;;;;;5053352;28;20462;-58
2024/01/24 06:43:57;;;;;;;18.10;3.53;;;12.90;99.90;;;;;;5053359;28;20438;-58
2024/01/24 06:46:26;;;;;;;10.77;3.00;;;12.90;99.90;;;;;;5053235;28;20955;-57
2024/01/24 06:48:53;;;;;;;15.80;4.07;;;12.90;99.90;;;;;;5053365;28;20446;-57
2024/01/24 06:51:20;;;;;;;14.43;3.27;;;12.90;99.90;;;;;;5052985;28;20444;-57
2024/01/24 06:53:46;;;;;;;19.07;3.63;;;12.90;99.90;;;;;;5053002;28;21005;-58
2024/01/24 06:56:13;;;;;;;13.10;3.93;;;12.90;99.90;;;;;;5053167;28;20445;-58
2024/01/24 06:58:40;;;;;;;18.87;3.90;;;12.80;99.90;;;;;;5053173;28;20456;-58
2024/01/24 07:01:08;;;;;;;15.23;4.70;;;12.80;99.90;;;;;;5053057;28;20441;-58
2024/01/24 07:03:35;;;;;;;16.73;4.10;;;12.70;99.90;;;;;;5053170;28;20438;-57
2024/01/24 07:06:05;;;;;;;22.37;4.83;;;12.70;99.90;;;;;;5053029;28;20453;-58
2024/01/24 07:08:33;;;;;;;19.53;3.87;;;12.70;99.90;;;;;;5053151;28;20537;-58
2024/01/24 07:10:59;;;;;;;19.43;3.50;;;12.70;99.90;;;;;;5052922;28;20453;-57
2024/01/24 07:13:26;;;;;;;20.43;4.00;;;12.70;99.90;;;;;;5052821;28;20489;-58
2024/01/24 07:15:53;;;;;;;16.70;4.03;;;12.70;99.90;;;;;;5052979;28;20452;-58
2024/01/24 07:18:21;;;;;;;22.37;4.77;;;12.70;99.90;;;;;;5053236;28;20449;-58
2024/01/24 07:20:47;;;;;;;20.53;4.43;;;12.70;99.90;;;;;;5052646;28;20936;-57
2024/01/24 07:23:15;;;;;;;16.33;4.50;;;12.70;99.90;;;;;;5052608;28;20975;-58
2024/01/24 07:25:41;;;;;;;18.70;3.90;;;12.70;99.90;;;;;;5053014;28;20544;-58
2024/01/24 07:28:08;;;;;;;20.43;4.70;;;12.80;99.90;;;;;;5052995;28;20446;-57
2024/01/24 07:30:35;;;;;;;21.17;4.20;;;12.70;99.90;;;;;;5052870;28;20449;-58
2024/01/24 07:33:03;;;;;;;24.57;4.50;;;12.70;99.90;;;;;;5052861;28;20465;-58
2024/01/24 07:35:31;;;;;;;18.63;4.20;;;12.70;99.90;;;;;;5052994;28;20559;-58
2024/01/24 07:37:58;;;;;;;21.00;4.87;;;12.70;99.90;;;;;;5052988;28;20446;-58
2024/01/24 07:40:25;;;;;;;20.33;4.73;;;12.70;99.90;;;;;;5052549;28;20932;-58
2024/01/24 07:42:52;;;;;;;25.67;5.40;;;12.80;99.90;;;;;;5052833;28;20473;-57
2024/01/24 07:45:19;;;;;;;25.23;5.07;;;12.80;99.90;;;;;;5052875;28;20437;-57
2024/01/24 07:47:47;;;;;;;18.47;4.60;;;12.70;99.90;;;;;;5056494;28;20473;-58
2024/01/24 07:50:14;;;;;;;18.93;5.07;;;12.70;99.90;;;;;;5056293;28;20446;-57
2024/01/24 07:52:42;;;;;;;20.43;5.30;;;12.70;99.90;;;;;;5055833;28;20469;-57
2024/01/24 07:55:09;;;;;;;18.03;4.03;;;12.70;99.90;;;;;;5056206;28;20488;-58
2024/01/24 07:57:36;;;;;;;30.20;5.20;;;12.70;99.90;;;;;;5056280;28;20450;-58
2024/01/24 08:00:04;;;;;;;23.03;5.50;;;12.70;99.90;;;;;;5055934;28;20963;-58
2024/01/24 08:02:31;;;;;;;29.00;5.13;;;12.70;99.90;;;;;;5056026;28;20476;-58
2024/01/24 08:04:58;;;;;;;20.20;4.40;;;12.60;99.90;;;;;;5056141;28;20474;-58
2024/01/24 08:07:25;;;;;;;27.30;6.10;;;12.60;99.90;;;;;;5055991;28;20477;-58
2024/01/24 08:09:53;;;;;;;28.30;5.30;;;12.60;99.90;;;;;;5055981;28;20448;-58
2024/01/24 08:12:19;;;;;;;25.23;6.57;;;12.60;99.90;;;;;;5055728;28;20466;-58
2024/01/24 08:14:46;;;;;;;19.97;5.13;;;12.60;99.90;;;;;;5055769;28;20481;-57
2024/01/24 08:17:13;;;;;;;20.17;5.03;;;12.60;99.90;;;;;;5055846;28;20449;-58
2024/01/24 08:19:40;;;;;;;24.53;5.30;;;12.60;99.90;;;;;;5055394;28;20866;-58
2024/01/24 08:22:07;;;;;;;21.57;4.87;;;12.60;99.90;;;;;;5055688;28;20466;-57
2024/01/24 08:24:34;;;;;;;21.80;5.20;;;12.60;99.90;;;;;;5055929;28;20855;-57
2024/01/24 08:27:02;;;;;;;21.00;4.80;;;12.60;99.30;;;;;;5055676;28;20450;-57
2024/01/24 08:29:29;;;;;;;25.60;5.27;;;12.60;98.90;;;;;;5055576;28;20540;-58
2024/01/24 08:31:55;;;;;;;27.40;4.27;;;12.60;98.80;;;;;;5055322;28;20468;-58
2024/01/24 08:34:22;;;;;;;21.67;6.67;;;12.60;97.40;;;;;;5054987;28;21017;-58
2024/01/24 08:36:49;;;;;;;19.60;5.47;;;12.60;96.90;;;;;;5055698;28;20446;-58
2024/01/24 08:39:15;;;;;;;30.07;6.20;;;12.60;96.50;;;;;;5055238;28;20962;-57
2024/01/24 08:41:42;;;;;;;25.07;5.40;;;12.60;96.90;;;;;;5055325;28;20465;-58
2024/01/24 08:44:10;;;;;;;34.30;7.33;;;12.60;96.80;;;;;;5055273;28;20528;-57
2024/01/24 08:46:37;;;;;;;22.80;4.97;;;12.70;96.30;;;;;;5055253;28;20452;-58
2024/01/24 08:49:03;;;;;;;35.63;6.80;;;12.60;96.10;;;;;;5055205;28;20445;-57
2024/01/24 08:51:31;;;;;;;42.27;7.80;;;12.70;96.30;;;;;;5054976;28;20469;-58
2024/01/24 08:53:59;;;;;;;23.10;4.60;;;12.70;96.20;;;;;;5054998;28;20470;-57
2024/01/24 08:56:26;;;;;;;27.20;5.87;;;12.70;96.00;;;;;;5054597;28;20987;-58
2024/01/24 08:58:53;;;;;;;23.07;5.23;;;12.60;96.30;;;;;;5054102;28;20507;-58
2024/01/24 09:01:21;;;;;;;27.87;5.73;;;12.60;96.20;;;;;;5054775;28;20450;-58
2024/01/24 09:03:49;;;;;;;24.10;5.23;;;12.60;96.00;;;;;;5054953;28;20452;-58
2024/01/24 09:06:16;;;;;;;22.10;5.27;;;12.60;96.30;;;;;;5054841;28;20453;-58
2024/01/24 09:08:44;;;;;;;27.10;5.47;;;12.60;96.20;;;;;;5054948;28;20481;-58
2024/01/24 09:11:11;;;;;;;25.17;5.23;;;12.60;95.90;;;;;;5054642;28;20442;-58
2024/01/24 09:13:37;;;;;;;24.40;6.40;;;12.60;95.80;;;;;;5054746;28;20475;-58
2024/01/24 09:16:04;;;;;;;20.60;5.00;;;12.60;95.70;;;;;;5054393;28;20882;-58
2024/01/24 09:18:32;;;;;;;23.70;5.50;;;12.60;95.90;;;;;;5054338;28;20939;-57
2024/01/24 09:20:59;;;;;;;26.57;5.77;;;12.60;96.10;;;;;;5054665;28;20820;-58
2024/01/24 09:23:26;;;;;;;27.53;5.60;;;12.60;95.90;;;;;;5054760;28;20465;-58
2024/01/24 09:25:52;;;;;;;23.83;5.37;;;12.60;96.10;;;;;;5054593;28;20446;-58
2024/01/24 09:28:19;;;;;;;17.03;4.83;;;12.60;96.40;;;;;;5054465;28;20442;-57
2024/01/24 09:30:46;;;;;;;24.47;5.10;;;12.60;96.50;;;;;;5054120;28;20442;-58
2024/01/24 09:33:13;;;;;;;26.87;5.70;;;12.60;96.40;;;;;;5053986;28;20991;-58
2024/01/24 09:35:41;;;;;;;28.37;6.03;;;12.60;96.60;;;;;;5054263;28;20477;-58
2024/01/24 09:38:08;;;;;;;26.43;6.33;;;12.60;96.70;;;;;;5054088;28;20511;-58
2024/01/24 09:40:34;;;;;;;15.40;5.30;;;12.70;97.00;;;;;;5054245;28;20548;-58
2024/01/24 09:43:02;;;;;;;29.10;5.80;;;12.70;96.90;;;;;;5053855;28;20837;-58
2024/01/24 09:45:29;;;;;;;24.93;5.23;;;12.70;96.20;;;;;;5053894;28;20931;-58
2024/01/24 09:47:58;;;;;;;28.53;5.53;;;12.70;96.00;;;;;;5053907;28;20813;-58
2024/01/24 09:50:25;;;;;;;17.30;5.30;;;12.80;95.90;;;;;;5054138;28;20452;-58
2024/01/24 09:52:54;;;;;;;26.90;4.93;;;12.70;95.90;;;;;;5053653;28;20488;-58
2024/01/24 09:55:21;;;;;;;24.70;6.20;;;12.70;95.70;;;;;;5053891;28;20486;-58
2024/01/24 09:57:48;;;;;;;30.67;6.57;;;12.70;95.70;;;;;;5053979;28;20503;-58
2024/01/24 10:00:15;;;;;;;21.37;6.20;;;12.60;95.70;;;;;;5053876;28;20452;-57
2024/01/24 10:02:45;;;;;;;22.50;4.73;;;12.60;95.90;;;;;;5053775;28;20462;-58
2024/01/24 10:05:16;;;;;;;30.13;6.13;;;12.70;96.10;;;;;;5053997;28;20442;-58
2024/01/24 10:07:43;;;;;;;33.57;7.33;;;12.80;95.70;;;;;;5053954;28;20421;-58
2024/01/24 10:10:12;;;;;;;21.53;4.80;;;12.80;96.20;;;;;;5053635;28;20475;-57
2024/01/24 10:12:41;;;;;;;25.60;5.37;;;12.80;96.00;;;;;;5053507;28;20535;-58
2024/01/24 10:15:09;;;;;;;27.13;6.77;;;12.80;96.40;;;;;;5053494;28;20485;-58
2024/01/24 10:17:36;;;;;;;33.90;6.40;;;12.80;96.50;;;;;;5053577;28;20452;-57
2024/01/24 10:20:06;;;;;;;28.80;6.00;;;12.70;96.50;;;;;;5053537;28;20446;-58
2024/01/24 10:22:33;;;;;;;25.93;6.07;;;12.80;96.60;;;;;;5053744;28;20477;-58
2024/01/24 10:24:59;;;;;;;33.07;6.87;;;12.80;96.50;;;;;;5053750;28;20472;-58
2024/01/24 10:27:28;;;;;;;40.27;6.53;;;12.80;96.10;;;;;;5053601;28;20449;-57
2024/01/24 10:29:54;;;;;;;24.67;5.00;;;12.80;96.50;;;;;;5053393;28;20441;-58
2024/01/24 10:32:21;;;;;;;29.50;6.47;;;12.80;96.10;;;;;;5053181;28;20468;-57
2024/01/24 10:34:51;;;;;;;26.03;5.80;;;12.80;96.00;;;;;;5052932;28;20999;-58
2024/01/24 10:37:18;;;;;;;29.40;7.00;;;12.90;95.80;;;;;;5053314;28;20449;-58
2024/01/24 10:39:45;;;;;;;22.70;5.30;;;12.90;94.40;;;;;;5052963;28;20943;-57
2024/01/24 10:42:18;;;;;;;33.30;7.40;;;13.00;95.00;;;;;;5053447;28;20470;-58
2024/01/24 10:44:48;;;;;;;22.23;4.73;;;13.00;94.80;;;;;;5053355;28;20449;-58
2024/01/24 10:47:15;;;;;;;21.33;6.00;;;13.00;94.70;;;;;;5053328;28;20434;-58
2024/01/24 10:49:42;;;;;;;22.97;5.70;;;13.00;94.20;;;;;;5052924;28;20944;-58
2024/01/24 10:52:09;;;;;;;24.80;5.60;;;13.00;94.10;;;;;;5053092;28;20469;-58
2024/01/24 10:54:40;;;;;;;19.17;4.53;;;13.00;94.50;;;;;;5052949;28;20489;-58
2024/01/24 10:57:07;;;;;;;35.37;8.23;;;13.00;94.00;;;;;;5053235;28;20469;-57
2024/01/24 10:59:38;;;;;;;30.73;6.40;;;13.00;93.20;;;;;;5053101;28;20445;-58
2024/01/24 11:02:09;;;;;;;21.63;4.73;;;13.00;93.50;;;;;;5052742;28;20964;-58
2024/01/24 11:04:38;;;;;;;26.23;5.50;;;13.00;93.90;;;;;;5052759;28;20896;-57
2024/01/24 11:07:16;;;;;;;24.07;5.80;;;12.90;93.50;;;;;;5052774;28;20944;-58
2024/01/24 11:09:53;;;;;;;26.37;6.27;;;12.90;94.00;;;;;;5053115;28;20430;-57
2024/01/24 11:12:20;;;;;;;21.37;5.50;;;12.90;93.70;;;;;;5052941;28;20554;-57
2024/01/24 11:14:47;;;;;;;29.73;6.50;;;12.90;94.00;;;;;;5052844;28;20501;-57
2024/01/24 11:17:15;;;;;;;27.60;5.80;;;12.80;93.90;;;;;;5052988;28;20446;-58
2024/01/24 11:19:42;;;;;;;22.93;5.47;;;12.80;93.90;;;;;;5054079;28;20916;-58
2024/01/24 11:22:11;;;;;;;31.17;5.10;;;12.90;93.80;;;;;;5055918;28;20552;-58
2024/01/24 11:24:52;;;;;;;22.63;6.00;;;12.90;93.80;;;;;;5056821;28;20452;-57
2024/01/24 11:27:32;;;;;;;26.03;5.50;;;12.90;94.10;;;;;;5056965;28;20502;-58
2024/01/24 11:30:01;;;;;;;30.93;5.47;;;13.00;94.10;;;;;;5056605;28;20891;-58
2024/01/24 11:33:01;;;;;;;29.80;5.53;;;13.10;93.60;;;;;;5056872;28;20461;-58
2024/01/24 11:35:37;;;;;;;26.47;5.73;;;13.10;93.30;;;;;;5054826;28;20481;-57
2024/01/24 11:38:07;;;;;;;30.70;6.23;;;13.10;93.50;;;;;;5056868;28;20448;-58
2024/01/24 11:40:35;;;;;;;26.13;7.53;;;13.10;93.60;;;;;;5056667;28;20426;-58
2024/01/24 11:43:03;;;;;;;19.50;5.30;;;13.10;93.20;;;;;;5056646;28;20551;-58
2024/01/24 11:45:30;;;;;;;35.93;8.80;;;13.10;93.10;;;;;;5056313;28;20882;-58
2024/01/24 11:47:57;;;;;;;25.83;6.53;;;13.10;93.00;;;;;;5056603;28;20449;-58
2024/01/24 11:50:24;;;;;;;25.57;6.17;;;13.10;93.00;;;;;;5056331;28;20456;-58
2024/01/24 11:52:59;;;;;;;26.43;5.60;;;13.20;92.90;;;;;;5055956;28;20469;-57
2024/01/24 11:55:27;;;;;;;29.90;5.30;;;13.20;92.20;;;;;;5056205;28;20491;-58
2024/01/24 11:57:54;;;;;;;24.07;5.30;;;13.20;91.30;;;;;;5056364;28;20460;-58
2024/01/24 12:00:21;;;;;;;23.17;5.33;;;13.30;91.80;;;;;;5056290;28;20446;-57
2024/01/24 12:02:48;;;;;;;24.97;5.87;;;13.40;91.90;;;;;;5056144;28;20470;-57
2024/01/24 12:05:15;;;;;;;22.27;5.53;;;13.30;91.40;;;;;;5056238;28;20445;-58
2024/01/24 12:07:42;;;;;;;29.80;7.20;;;13.30;92.00;;;;;;5056155;28;20491;-58
2024/01/24 12:10:11;;;;;;;19.57;5.37;;;13.40;91.30;;;;;;5056080;28;20993;-58
2024/01/24 12:12:38;;;;;;;23.93;5.40;;;13.50;91.00;;;;;;5055930;28;20531;-57
2024/01/24 12:15:05;;;;;;;18.37;5.27;;;13.70;90.00;;;;;;5055522;28;20553;-58
2024/01/24 12:17:35;;;;;;;25.93;5.53;;;13.90;90.20;;;;;;5055730;28;20983;-58
2024/01/24 12:20:05;;;;;;;21.67;5.00;;;13.90;90.30;;;;;;5055547;28;20951;-57
2024/01/24 12:22:32;;;;;;;25.03;5.70;;;13.90;90.40;;;;;;5055818;28;20553;-58
2024/01/24 12:25:03;;;;;;;28.40;5.90;;;13.90;90.10;;;;;;5055881;28;20445;-57
2024/01/24 12:27:31;;;;;;;28.00;5.77;;;13.90;89.00;;;;;;5055846;28;20433;-58
2024/01/24 12:29:58;;;;;;;17.90;5.10;;;13.90;90.10;;;;;;5055767;28;20446;-58
2024/01/24 12:32:25;;;;;;;24.90;5.67;;;13.80;89.90;;;;;;5055903;28;20806;-58
2024/01/24 12:34:54;;;;;;;17.90;5.30;;;13.60;89.40;;;;;;5055474;28;20468;-58
2024/01/24 12:37:22;;;;;;;29.03;6.10;;;13.50;90.40;;;;;;5055357;28;20939;-58
2024/01/24 12:39:52;;;;;;;21.30;5.60;;;13.40;91.10;;;;;;5055550;28;20445;-58
2024/01/24 12:42:19;;;;;;;21.40;6.03;;;13.30;90.90;;;;;;5055090;28;21029;-58